sensor_id;sensor_type;location;lat;lon;timestamp;pressure;altitude;pressure_sealevel;temperature;humidity
78909;BME280;68298;37.368;127.108;2023-04-24T00:02:08;101342.56;;;18.31;30.51
78909;BME280;68298;37.368;127.108;2023-04-24T00:04:41;101346.09;;;18.30;30.25
78909;BME280;68298;37.368;127.108;2023-04-24T00:07:14;101353.97;;;18.30;30.67
78909;BME280;68298;37.368;127.108;2023-04-24T00:09:47;101343.47;;;18.30;30.43
78909;BME280;68298;37.368;127.108;2023-04-24T00:12:17;101352.22;;;18.30;30.59
78909;BME280;68298;37.368;127.108;2023-04-24T00:15:01;101352.13;;;18.32;30.39
78909;BME280;68298;37.368;127.108;2023-04-24T00:17:32;101356.53;;;18.31;30.57
78909;BME280;68298;37.368;127.108;2023-04-24T00:20:03;101361.78;;;18.31;30.38
78909;BME280;68298;37.368;127.108;2023-04-24T00:22:34;101354.75;;;18.32;30.35
78909;BME280;68298;37.368;127.108;2023-04-24T00:25:05;101346.88;;;18.32;30.91
78909;BME280;68298;37.368;127.108;2023-04-24T00:27:36;101350.44;;;18.31;30.24
78909;BME280;68298;37.368;127.108;2023-04-24T00:30:20;101356.34;;;18.34;31.56
78909;BME280;68298;37.368;127.108;2023-04-24T00:32:51;101356.25;;;18.36;31.79
78909;BME280;68298;37.368;127.108;2023-04-24T00:35:23;101360.56;;;18.37;31.77
78909;BME280;68298;37.368;127.108;2023-04-24T00:37:54;101353.44;;;18.39;31.65
78909;BME280;68298;37.368;127.108;2023-04-24T00:40:24;101354.28;;;18.39;32.37
78909;BME280;68298;37.368;127.108;2023-04-24T00:42:55;101361.25;;;18.40;32.41
78909;BME280;68298;37.368;127.108;2023-04-24T00:45:27;101359.38;;;18.42;32.34
78909;BME280;68298;37.368;127.108;2023-04-24T00:48:12;101359.28;;;18.44;32.48
78909;BME280;68298;37.368;127.108;2023-04-24T00:50:43;101363.59;;;18.45;32.68
78909;BME280;68298;37.368;127.108;2023-04-24T00:53:14;101349.56;;;18.46;33.05
78909;BME280;68298;37.368;127.108;2023-04-24T00:55:57;101360.88;;;18.46;33.46
78909;BME280;68298;37.368;127.108;2023-04-24T00:58:28;101359.94;;;18.48;33.51
78909;BME280;68298;37.368;127.108;2023-04-24T01:01:00;101354.59;;;18.49;33.80
78909;BME280;68298;37.368;127.108;2023-04-24T01:03:32;101363.34;;;18.50;33.99
78909;BME280;68298;37.368;127.108;2023-04-24T01:06:04;101364.94;;;18.52;33.65
78909;BME280;68298;37.368;127.108;2023-04-24T01:08:36;101362.19;;;18.54;34.03
78909;BME280;68298;37.368;127.108;2023-04-24T01:11:07;101368.31;;;18.54;33.88
78909;BME280;68298;37.368;127.108;2023-04-24T01:13:38;101364.75;;;18.55;34.27
78909;BME280;68298;37.368;127.108;2023-04-24T01:16:10;101360.25;;;18.57;34.00
78909;BME280;68298;37.368;127.108;2023-04-24T01:18:41;101354.00;;;18.60;34.50
78909;BME280;68298;37.368;127.108;2023-04-24T01:21:14;101352.22;;;18.60;34.88
78909;BME280;68298;37.368;127.108;2023-04-24T01:23:46;101355.69;;;18.61;35.41
78909;BME280;68298;37.368;127.108;2023-04-24T01:26:18;101358.19;;;18.62;36.23
78909;BME280;68298;37.368;127.108;2023-04-24T01:28:52;101353.78;;;18.63;36.45
78909;BME280;68298;37.368;127.108;2023-04-24T01:31:23;101347.63;;;18.64;36.19
78909;BME280;68298;37.368;127.108;2023-04-24T01:33:55;101343.28;;;18.63;35.41
78909;BME280;68298;37.368;127.108;2023-04-24T01:36:27;101342.47;;;18.62;35.36
78909;BME280;68298;37.368;127.108;2023-04-24T01:38:58;101337.22;;;18.62;35.04
78909;BME280;68298;37.368;127.108;2023-04-24T01:41:30;101337.13;;;18.64;35.28
78909;BME280;68298;37.368;127.108;2023-04-24T01:44:03;101329.25;;;18.64;35.27
78909;BME280;68298;37.368;127.108;2023-04-24T01:46:35;101327.47;;;18.64;35.34
78909;BME280;68298;37.368;127.108;2023-04-24T01:49:06;101318.66;;;18.65;35.42
78909;BME280;68298;37.368;127.108;2023-04-24T01:51:38;101324.75;;;18.66;35.16
78909;BME280;68298;37.368;127.108;2023-04-24T01:54:09;101323.78;;;18.68;34.53
78909;BME280;68298;37.368;127.108;2023-04-24T01:56:42;101327.25;;;18.69;34.77
78909;BME280;68298;37.368;127.108;2023-04-24T01:59:13;101321.16;;;18.68;34.42
78909;BME280;68298;37.368;127.108;2023-04-24T02:01:43;101326.28;;;18.70;34.12
78909;BME280;68298;37.368;127.108;2023-04-24T02:04:14;101318.41;;;18.70;34.64
78909;BME280;68298;37.368;127.108;2023-04-24T02:06:46;101321.88;;;18.70;34.38
78909;BME280;68298;37.368;127.108;2023-04-24T02:09:16;101309.59;;;18.71;34.32
78909;BME280;68298;37.368;127.108;2023-04-24T02:11:47;101308.66;;;18.72;34.17
78909;BME280;68298;37.368;127.108;2023-04-24T02:14:18;101317.38;;;18.73;33.64
78909;BME280;68298;37.368;127.108;2023-04-24T02:16:48;101316.47;;;18.74;33.78
78909;BME280;68298;37.368;127.108;2023-04-24T02:19:19;101315.59;;;18.73;33.53
78909;BME280;68298;37.368;127.108;2023-04-24T02:21:51;101312.91;;;18.75;34.26
78909;BME280;68298;37.368;127.108;2023-04-24T02:24:21;101306.81;;;18.74;33.67
78909;BME280;68298;37.368;127.108;2023-04-24T02:26:52;101305.88;;;18.75;34.35
78909;BME280;68298;37.368;127.108;2023-04-24T02:29:22;101301.47;;;18.76;34.18
78909;BME280;68298;37.368;127.108;2023-04-24T02:31:53;101302.28;;;18.76;33.62
78909;BME280;68298;37.368;127.108;2023-04-24T02:34:23;101307.53;;;18.76;33.40
78909;BME280;68298;37.368;127.108;2023-04-24T02:36:54;101298.84;;;18.76;33.26
78909;BME280;68298;37.368;127.108;2023-04-24T02:39:24;101290.13;;;18.75;33.41
78909;BME280;68298;37.368;127.108;2023-04-24T02:41:55;101295.25;;;18.77;33.52
78909;BME280;68298;37.368;127.108;2023-04-24T02:44:25;101293.47;;;18.77;33.30
78909;BME280;68298;37.368;127.108;2023-04-24T02:46:56;101279.50;;;18.77;33.16
78909;BME280;68298;37.368;127.108;2023-04-24T02:49:27;101281.28;;;18.76;33.25
78909;BME280;68298;37.368;127.108;2023-04-24T02:51:57;101282.97;;;18.77;32.65
78909;BME280;68298;37.368;127.108;2023-04-24T02:54:28;101279.50;;;18.77;33.18
78909;BME280;68298;37.368;127.108;2023-04-24T02:56:58;101283.81;;;18.78;33.11
78909;BME280;68298;37.368;127.108;2023-04-24T02:59:30;101282.91;;;18.79;32.81
78909;BME280;68298;37.368;127.108;2023-04-24T03:02:01;101272.41;;;18.79;32.49
78909;BME280;68298;37.368;127.108;2023-04-24T03:04:32;101280.28;;;18.79;32.46
78909;BME280;68298;37.368;127.108;2023-04-24T03:07:02;101267.16;;;18.79;32.58
78909;BME280;68298;37.368;127.108;2023-04-24T03:09:34;101263.59;;;18.80;32.81
78909;BME280;68298;37.368;127.108;2023-04-24T03:12:04;101268.72;;;18.81;32.27
78909;BME280;68298;37.368;127.108;2023-04-24T03:14:35;101262.66;;;18.81;32.36
78909;BME280;68298;37.368;127.108;2023-04-24T03:17:05;101265.16;;;18.82;32.45
78909;BME280;68298;37.368;127.108;2023-04-24T03:19:35;101254.66;;;18.82;32.52
78909;BME280;68298;37.368;127.108;2023-04-24T03:22:10;101261.63;;;18.83;32.52
78909;BME280;68298;37.368;127.108;2023-04-24T03:24:41;101256.38;;;18.83;31.77
78909;BME280;68298;37.368;127.108;2023-04-24T03:27:15;101257.22;;;18.84;31.53
78909;BME280;68298;37.368;127.108;2023-04-24T03:29:59;101251.97;;;18.84;32.24
78909;BME280;68298;37.368;127.108;2023-04-24T03:32:40;101258.78;;;18.86;31.68
78909;BME280;68298;37.368;127.108;2023-04-24T03:35:14;101256.16;;;18.86;31.60
78909;BME280;68298;37.368;127.108;2023-04-24T03:37:45;101243.88;;;18.87;31.33
78909;BME280;68298;37.368;127.108;2023-04-24T03:40:38;101234.22;;;18.87;31.37
78909;BME280;68298;37.368;127.108;2023-04-24T03:43:24;101216.72;;;18.88;31.45
78909;BME280;68298;37.368;127.108;2023-04-24T03:45:59;101211.47;;;18.88;31.65
78909;BME280;68298;37.368;127.108;2023-04-24T03:48:33;101214.94;;;18.88;31.58
78909;BME280;68298;37.368;127.108;2023-04-24T03:51:04;101211.34;;;18.89;31.21
78909;BME280;68298;37.368;127.108;2023-04-24T03:53:37;101208.72;;;18.89;31.13
78909;BME280;68298;37.368;127.108;2023-04-24T03:56:09;101210.41;;;18.90;31.81
78909;BME280;68298;37.368;127.108;2023-04-24T03:58:41;101208.63;;;18.91;31.37
78909;BME280;68298;37.368;127.108;2023-04-24T04:01:11;101207.69;;;18.92;31.91
78909;BME280;68298;37.368;127.108;2023-04-24T04:03:55;101205.06;;;18.92;31.32
78909;BME280;68298;37.368;127.108;2023-04-24T04:06:27;101212.03;;;18.93;31.33
78909;BME280;68298;37.368;127.108;2023-04-24T04:08:59;101203.19;;;18.94;31.51
78909;BME280;68298;37.368;127.108;2023-04-24T04:11:30;101203.19;;;18.94;31.60
78909;BME280;68298;37.368;127.108;2023-04-24T04:14:01;101203.19;;;18.94;31.45
78909;BME280;68298;37.368;127.108;2023-04-24T04:16:34;101199.63;;;18.95;31.87
78909;BME280;68298;37.368;127.108;2023-04-24T04:19:06;101196.06;;;18.96;31.64
78909;BME280;68298;37.368;127.108;2023-04-24T04:21:37;101189.00;;;18.96;31.39
78909;BME280;68298;37.368;127.108;2023-04-24T04:24:19;101191.56;;;18.98;31.98
78909;BME280;68298;37.368;127.108;2023-04-24T04:26:53;101181.06;;;18.98;31.77
78909;BME280;68298;37.368;127.108;2023-04-24T04:29:35;101187.88;;;19.01;31.92
78909;BME280;68298;37.368;127.108;2023-04-24T04:32:08;101185.25;;;19.01;32.18
78909;BME280;68298;37.368;127.108;2023-04-24T04:34:39;101176.38;;;19.03;32.65
78909;BME280;68298;37.368;127.108;2023-04-24T04:37:11;101178.88;;;19.05;32.33
78909;BME280;68298;37.368;127.108;2023-04-24T04:39:51;101180.47;;;19.07;33.55
78909;BME280;68298;37.368;127.108;2023-04-24T04:42:26;101183.00;;;19.09;34.31
78909;BME280;68298;37.368;127.108;2023-04-24T04:44:57;101179.31;;;19.11;35.24
78909;BME280;68298;37.368;127.108;2023-04-24T04:47:40;101172.03;;;19.16;35.83
78909;BME280;68298;37.368;127.108;2023-04-24T04:50:11;101170.31;;;19.15;36.21
78909;BME280;68298;37.368;127.108;2023-04-24T04:52:42;101174.66;;;19.16;36.49
78909;BME280;68298;37.368;127.108;2023-04-24T04:55:22;101173.59;;;19.19;36.93
78909;BME280;68298;37.368;127.108;2023-04-24T04:58:08;101172.66;;;19.20;37.25
78909;BME280;68298;37.368;127.108;2023-04-24T05:00:38;101174.31;;;19.21;37.55
78909;BME280;68298;37.368;127.108;2023-04-24T05:03:18;101162.78;;;19.23;38.07
78909;BME280;68298;37.368;127.108;2023-04-24T05:05:58;101158.19;;;19.27;38.70
78909;BME280;68298;37.368;127.108;2023-04-24T05:08:31;101162.50;;;19.28;39.05
78909;BME280;68298;37.368;127.108;2023-04-24T05:11:04;101164.16;;;19.29;39.14
78909;BME280;68298;37.368;127.108;2023-04-24T05:13:35;101157.97;;;19.30;39.14
78909;BME280;68298;37.368;127.108;2023-04-24T05:16:27;101152.63;;;19.32;39.40
78909;BME280;68298;37.368;127.108;2023-04-24T05:18:57;101149.91;;;19.33;40.44
78909;BME280;68298;37.368;127.108;2023-04-24T05:21:34;101135.81;;;19.34;39.85
78909;BME280;68298;37.368;127.108;2023-04-24T05:24:05;101141.00;;;19.36;40.23
78909;BME280;68298;37.368;127.108;2023-04-24T05:26:53;101130.47;;;19.36;40.60
78909;BME280;68298;37.368;127.108;2023-04-24T05:29:31;101134.56;;;19.40;41.09
78909;BME280;68298;37.368;127.108;2023-04-24T05:32:04;101133.66;;;19.41;40.48
78909;BME280;68298;37.368;127.108;2023-04-24T05:34:35;101130.81;;;19.44;41.08
78909;BME280;68298;37.368;127.108;2023-04-24T05:37:06;101135.09;;;19.45;41.50
78909;BME280;68298;37.368;127.108;2023-04-24T05:39:39;101123.69;;;19.46;41.46
78909;BME280;68298;37.368;127.108;2023-04-24T05:42:11;101117.59;;;19.45;41.26
78909;BME280;68298;37.368;127.108;2023-04-24T05:44:42;101112.22;;;19.47;41.27
78909;BME280;68298;37.368;127.108;2023-04-24T05:47:13;101118.00;;;19.52;41.69
78909;BME280;68298;37.368;127.108;2023-04-24T05:49:43;101109.28;;;19.52;41.58
78909;BME280;68298;37.368;127.108;2023-04-24T05:52:14;101111.78;;;19.53;41.54
78909;BME280;68298;37.368;127.108;2023-04-24T05:54:45;101105.81;;;19.51;43.75
78909;BME280;68298;37.368;127.108;2023-04-24T05:57:21;101100.34;;;19.54;42.30
78909;BME280;68298;37.368;127.108;2023-04-24T05:59:59;101091.53;;;19.55;43.33
78909;BME280;68298;37.368;127.108;2023-04-24T06:02:40;101099.41;;;19.55;44.50
78909;BME280;68298;37.368;127.108;2023-04-24T06:05:13;101102.03;;;19.55;43.48
78909;BME280;68298;37.368;127.108;2023-04-24T06:07:45;101089.75;;;19.56;42.60
78909;BME280;68298;37.368;127.108;2023-04-24T06:10:16;101084.56;;;19.54;41.10
78909;BME280;68298;37.368;127.108;2023-04-24T06:12:47;101088.91;;;19.55;40.95
78909;BME280;68298;37.368;127.108;2023-04-24T06:15:18;101087.00;;;19.57;41.07
78909;BME280;68298;37.368;127.108;2023-04-24T06:17:56;101082.59;;;19.58;41.21
78909;BME280;68298;37.368;127.108;2023-04-24T06:20:27;101083.41;;;19.58;40.59
78909;BME280;68298;37.368;127.108;2023-04-24T06:22:58;101072.91;;;19.58;40.47
78909;BME280;68298;37.368;127.108;2023-04-24T06:25:29;101068.50;;;19.59;39.72
78909;BME280;68298;37.368;127.108;2023-04-24T06:28:00;101067.66;;;19.58;39.91
78909;BME280;68298;37.368;127.108;2023-04-24T06:30:31;101071.06;;;19.60;39.46
78909;BME280;68298;37.368;127.108;2023-04-24T06:33:02;101063.19;;;19.60;39.78
78909;BME280;68298;37.368;127.108;2023-04-24T06:35:46;101061.28;;;19.62;38.50
78909;BME280;68298;37.368;127.108;2023-04-24T06:38:17;101053.50;;;19.61;38.91
78909;BME280;68298;37.368;127.108;2023-04-24T06:40:47;101055.28;;;19.60;38.79
78909;BME280;68298;37.368;127.108;2023-04-24T06:43:18;101043.84;;;19.61;38.19
78909;BME280;68298;37.368;127.108;2023-04-24T06:45:50;101042.03;;;19.62;38.28
78909;BME280;68298;37.368;127.108;2023-04-24T06:48:21;101040.25;;;19.62;37.94
78909;BME280;68298;37.368;127.108;2023-04-24T06:50:52;101037.63;;;19.62;38.01
78909;BME280;68298;37.368;127.108;2023-04-24T06:53:22;101043.72;;;19.63;37.82
78909;BME280;68298;37.368;127.108;2023-04-24T06:55:53;101044.56;;;19.63;37.57
78909;BME280;68298;37.368;127.108;2023-04-24T06:58:25;101039.31;;;19.63;37.63
78909;BME280;68298;37.368;127.108;2023-04-24T07:00:55;101041.94;;;19.63;37.82
78909;BME280;68298;37.368;127.108;2023-04-24T07:03:26;101033.22;;;19.63;37.15
78909;BME280;68298;37.368;127.108;2023-04-24T07:05:56;101038.47;;;19.63;36.74
78909;BME280;68298;37.368;127.108;2023-04-24T07:08:39;101032.38;;;19.62;37.41
78909;BME280;68298;37.368;127.108;2023-04-24T07:11:11;101033.22;;;19.63;36.58
78909;BME280;68298;37.368;127.108;2023-04-24T07:13:42;101027.09;;;19.62;36.89
78909;BME280;68298;37.368;127.108;2023-04-24T07:16:13;101021.84;;;19.62;36.87
78909;BME280;68298;37.368;127.108;2023-04-24T07:18:44;101023.53;;;19.63;36.71
78909;BME280;68298;37.368;127.108;2023-04-24T07:21:14;101013.00;;;19.63;36.41
78909;BME280;68298;37.368;127.108;2023-04-24T07:23:45;101016.47;;;19.64;36.66
78909;BME280;68298;37.368;127.108;2023-04-24T07:26:15;101013.00;;;19.63;37.00
78909;BME280;68298;37.368;127.108;2023-04-24T07:28:46;101016.59;;;19.62;36.45
78909;BME280;68298;37.368;127.108;2023-04-24T07:31:17;101014.81;;;19.63;35.81
78909;BME280;68298;37.368;127.108;2023-04-24T07:33:48;101015.66;;;19.63;36.51
78909;BME280;68298;37.368;127.108;2023-04-24T07:36:20;101014.81;;;19.63;36.73
78909;BME280;68298;37.368;127.108;2023-04-24T07:38:51;101013.00;;;19.63;35.96
78909;BME280;68298;37.368;127.108;2023-04-24T07:41:22;101008.72;;;19.62;35.80
78909;BME280;68298;37.368;127.108;2023-04-24T07:43:53;101013.97;;;19.62;36.25
78909;BME280;68298;37.368;127.108;2023-04-24T07:46:24;101000.81;;;19.62;36.10
78909;BME280;68298;37.368;127.108;2023-04-24T07:48:54;100995.56;;;19.62;35.71
78909;BME280;68298;37.368;127.108;2023-04-24T07:51:40;100999.88;;;19.63;35.95
78909;BME280;68298;37.368;127.108;2023-04-24T07:54:11;100998.09;;;19.64;35.89
78909;BME280;68298;37.368;127.108;2023-04-24T07:56:42;100995.44;;;19.64;36.06
78909;BME280;68298;37.368;127.108;2023-04-24T07:59:13;100993.69;;;19.64;35.60
78909;BME280;68298;37.368;127.108;2023-04-24T08:01:44;100990.19;;;19.64;35.32
78909;BME280;68298;37.368;127.108;2023-04-24T08:04:15;100984.03;;;19.65;35.53
78909;BME280;68298;37.368;127.108;2023-04-24T08:06:47;100988.44;;;19.64;34.84
78909;BME280;68298;37.368;127.108;2023-04-24T08:09:18;100980.56;;;19.64;35.25
78909;BME280;68298;37.368;127.108;2023-04-24T08:11:49;100985.69;;;19.66;35.63
78909;BME280;68298;37.368;127.108;2023-04-24T08:14:20;100995.25;;;19.67;35.18
78909;BME280;68298;37.368;127.108;2023-04-24T08:16:52;100994.41;;;19.66;35.13
78909;BME280;68298;37.368;127.108;2023-04-24T08:19:22;100990.84;;;19.67;35.10
78909;BME280;68298;37.368;127.108;2023-04-24T08:21:52;100991.78;;;19.66;35.46
78909;BME280;68298;37.368;127.108;2023-04-24T08:24:23;100997.88;;;19.67;35.21
78909;BME280;68298;37.368;127.108;2023-04-24T08:26:54;100997.03;;;19.66;35.33
78909;BME280;68298;37.368;127.108;2023-04-24T08:29:26;101000.50;;;19.67;35.17
78909;BME280;68298;37.368;127.108;2023-04-24T08:31:57;101003.97;;;19.67;34.79
78909;BME280;68298;37.368;127.108;2023-04-24T08:34:27;101005.78;;;19.67;35.12
78909;BME280;68298;37.368;127.108;2023-04-24T08:36:58;101005.78;;;19.67;35.54
78909;BME280;68298;37.368;127.108;2023-04-24T08:39:28;100998.72;;;19.67;35.24
78909;BME280;68298;37.368;127.108;2023-04-24T08:42:00;101003.16;;;19.67;35.07
78909;BME280;68298;37.368;127.108;2023-04-24T08:44:36;100997.88;;;19.67;35.56
78909;BME280;68298;37.368;127.108;2023-04-24T08:47:07;100994.41;;;19.66;34.91
78909;BME280;68298;37.368;127.108;2023-04-24T08:49:38;101004.09;;;19.66;34.80
78909;BME280;68298;37.368;127.108;2023-04-24T08:52:09;101002.31;;;19.66;34.65
78909;BME280;68298;37.368;127.108;2023-04-24T08:54:41;101007.56;;;19.66;35.12
78909;BME280;68298;37.368;127.108;2023-04-24T08:57:15;101002.31;;;19.66;34.65
78909;BME280;68298;37.368;127.108;2023-04-24T08:59:47;101002.31;;;19.66;34.96
78909;BME280;68298;37.368;127.108;2023-04-24T09:02:18;101012.94;;;19.65;34.58
78909;BME280;68298;37.368;127.108;2023-04-24T09:04:50;101017.25;;;19.66;34.40
78909;BME280;68298;37.368;127.108;2023-04-24T09:07:24;101023.44;;;19.65;34.98
78909;BME280;68298;37.368;127.108;2023-04-24T09:09:59;101021.66;;;19.65;34.95
78909;BME280;68298;37.368;127.108;2023-04-24T09:12:31;101020.81;;;19.65;34.98
78909;BME280;68298;37.368;127.108;2023-04-24T09:15:03;101019.13;;;19.64;34.91
78909;BME280;68298;37.368;127.108;2023-04-24T09:17:33;101022.59;;;19.64;34.78
78909;BME280;68298;37.368;127.108;2023-04-24T09:20:05;101018.19;;;19.65;34.47
78909;BME280;68298;37.368;127.108;2023-04-24T09:22:36;101014.72;;;19.64;35.07
78909;BME280;68298;37.368;127.108;2023-04-24T09:25:09;101019.13;;;19.64;34.22
78909;BME280;68298;37.368;127.108;2023-04-24T09:27:43;101011.22;;;19.64;34.88
78909;BME280;68298;37.368;127.108;2023-04-24T09:30:21;101000.72;;;19.64;34.52
78909;BME280;68298;37.368;127.108;2023-04-24T09:33:13;101008.59;;;19.64;34.09
78909;BME280;68298;37.368;127.108;2023-04-24T09:35:51;101007.75;;;19.63;34.48
78909;BME280;68298;37.368;127.108;2023-04-24T09:38:40;101007.75;;;19.63;35.03
78909;BME280;68298;37.368;127.108;2023-04-24T09:41:13;101009.56;;;19.63;33.90
78909;BME280;68298;37.368;127.108;2023-04-24T09:43:44;101013.84;;;19.64;34.12
78909;BME280;68298;37.368;127.108;2023-04-24T09:46:18;101013.00;;;19.63;33.91
78909;BME280;68298;37.368;127.108;2023-04-24T09:48:49;101004.28;;;19.63;34.36
78909;BME280;68298;37.368;127.108;2023-04-24T09:51:37;101007.75;;;19.63;34.59
78909;BME280;68298;37.368;127.108;2023-04-24T09:54:16;101009.56;;;19.63;34.31
78909;BME280;68298;37.368;127.108;2023-04-24T09:56:49;101014.81;;;19.63;33.93
78909;BME280;68298;37.368;127.108;2023-04-24T09:59:20;101018.38;;;19.62;33.83
78909;BME280;68298;37.368;127.108;2023-04-24T10:01:52;101032.38;;;19.62;34.27
78909;BME280;68298;37.368;127.108;2023-04-24T10:04:27;101026.28;;;19.62;34.25
78909;BME280;68298;37.368;127.108;2023-04-24T10:06:58;101025.44;;;19.61;34.21
78909;BME280;68298;37.368;127.108;2023-04-24T10:09:30;101023.66;;;19.62;33.96
78909;BME280;68298;37.368;127.108;2023-04-24T10:12:00;101026.28;;;19.62;34.11
78909;BME280;68298;37.368;127.108;2023-04-24T10:14:31;101028.06;;;19.61;33.82
78909;BME280;68298;37.368;127.108;2023-04-24T10:17:03;101035.13;;;19.61;34.12
78909;BME280;68298;37.368;127.108;2023-04-24T10:19:34;101041.19;;;19.61;33.68
78909;BME280;68298;37.368;127.108;2023-04-24T10:22:06;101041.31;;;19.60;33.98
78909;BME280;68298;37.368;127.108;2023-04-24T10:24:36;101043.94;;;19.60;33.72
78909;BME280;68298;37.368;127.108;2023-04-24T10:27:08;101050.94;;;19.59;33.87
78909;BME280;68298;37.368;127.108;2023-04-24T10:29:40;101048.31;;;19.59;33.65
78909;BME280;68298;37.368;127.108;2023-04-24T10:32:13;101053.56;;;19.59;34.07
78909;BME280;68298;37.368;127.108;2023-04-24T10:34:43;101052.72;;;19.59;33.50
78909;BME280;68298;37.368;127.108;2023-04-24T10:37:15;101050.09;;;19.59;34.05
78909;BME280;68298;37.368;127.108;2023-04-24T10:39:48;101058.81;;;19.59;33.03
78909;BME280;68298;37.368;127.108;2023-04-24T10:42:20;101053.66;;;19.58;33.30
78909;BME280;68298;37.368;127.108;2023-04-24T10:44:52;101050.22;;;19.57;33.68
78909;BME280;68298;37.368;127.108;2023-04-24T10:47:24;101058.09;;;19.57;33.89
78909;BME280;68298;37.368;127.108;2023-04-24T10:49:59;101058.94;;;19.58;33.28
78909;BME280;68298;37.368;127.108;2023-04-24T10:52:47;101063.34;;;19.57;33.56
78909;BME280;68298;37.368;127.108;2023-04-24T10:58:12;101074.81;;;19.56;33.05
78909;BME280;68298;37.368;127.108;2023-04-24T11:00:48;101080.06;;;19.56;33.46
78909;BME280;68298;37.368;127.108;2023-04-24T11:03:29;101079.22;;;19.56;32.81
78909;BME280;68298;37.368;127.108;2023-04-24T11:06:05;101083.66;;;19.55;33.09
78909;BME280;68298;37.368;127.108;2023-04-24T11:09:02;101087.19;;;19.54;33.13
78909;BME280;68298;37.368;127.108;2023-04-24T11:11:36;101094.16;;;19.55;33.17
78909;BME280;68298;37.368;127.108;2023-04-24T11:14:09;101091.63;;;19.54;33.53
78909;BME280;68298;37.368;127.108;2023-04-24T11:16:54;101097.72;;;19.54;33.24
78909;BME280;68298;37.368;127.108;2023-04-24T11:19:26;101102.13;;;19.54;32.79
78909;BME280;68298;37.368;127.108;2023-04-24T11:22:01;101110.00;;;19.54;33.17
78909;BME280;68298;37.368;127.108;2023-04-24T11:27:24;101117.06;;;19.53;33.17
78909;BME280;68298;37.368;127.108;2023-04-24T11:35:20;101127.69;;;19.52;33.15
78909;BME280;68298;37.368;127.108;2023-04-24T11:37:58;101133.88;;;19.51;32.63
78909;BME280;68298;37.368;127.108;2023-04-24T11:40:35;101137.34;;;19.51;33.39
78909;BME280;68298;37.368;127.108;2023-04-24T11:43:09;101134.72;;;19.51;32.59
78909;BME280;68298;37.368;127.108;2023-04-24T11:45:48;101139.97;;;19.51;32.39
78909;BME280;68298;37.368;127.108;2023-04-24T11:48:20;101145.31;;;19.49;32.87
78909;BME280;68298;37.368;127.108;2023-04-24T11:50:52;101147.94;;;19.49;32.53
78909;BME280;68298;37.368;127.108;2023-04-24T11:53:22;101148.81;;;19.50;32.30
78909;BME280;68298;37.368;127.108;2023-04-24T11:55:53;101149.72;;;19.49;32.63
78909;BME280;68298;37.368;127.108;2023-04-24T11:58:24;101149.72;;;19.49;32.08
78909;BME280;68298;37.368;127.108;2023-04-24T12:00:57;101154.16;;;19.48;32.19
78909;BME280;68298;37.368;127.108;2023-04-24T12:03:30;101153.31;;;19.48;32.61
78909;BME280;68298;37.368;127.108;2023-04-24T12:06:08;101149.84;;;19.47;32.27
78909;BME280;68298;37.368;127.108;2023-04-24T12:08:39;101155.09;;;19.47;32.48
78909;BME280;68298;37.368;127.108;2023-04-24T12:11:09;101159.50;;;19.47;32.47
78909;BME280;68298;37.368;127.108;2023-04-24T12:13:41;101164.88;;;19.45;32.42
78909;BME280;68298;37.368;127.108;2023-04-24T12:16:12;101163.09;;;19.46;31.77
78909;BME280;68298;37.368;127.108;2023-04-24T12:18:43;101172.75;;;19.45;31.78
78909;BME280;68298;37.368;127.108;2023-04-24T12:21:16;101170.22;;;19.44;32.57
78909;BME280;68298;37.368;127.108;2023-04-24T12:23:50;101182.41;;;19.45;32.04
78909;BME280;68298;37.368;127.108;2023-04-24T12:26:21;101167.59;;;19.44;32.26
78909;BME280;68298;37.368;127.108;2023-04-24T12:28:52;101179.88;;;19.43;31.67
78909;BME280;68298;37.368;127.108;2023-04-24T12:31:23;101167.69;;;19.42;31.99
78909;BME280;68298;37.368;127.108;2023-04-24T12:33:55;101168.53;;;19.43;32.27
78909;BME280;68298;37.368;127.108;2023-04-24T12:36:26;101160.75;;;19.41;32.25
78909;BME280;68298;37.368;127.108;2023-04-24T12:38:57;101165.19;;;19.41;31.88
78909;BME280;68298;37.368;127.108;2023-04-24T12:41:31;101178.31;;;19.41;32.03
78909;BME280;68298;37.368;127.108;2023-04-24T12:44:01;101190.63;;;19.40;32.03
78909;BME280;68298;37.368;127.108;2023-04-24T12:46:31;101187.13;;;19.40;31.87
78909;BME280;68298;37.368;127.108;2023-04-24T12:49:02;101183.66;;;19.39;31.82
78909;BME280;68298;37.368;127.108;2023-04-24T12:51:33;101180.19;;;19.39;32.02
78909;BME280;68298;37.368;127.108;2023-04-24T12:54:03;101189.00;;;19.38;31.67
78909;BME280;68298;37.368;127.108;2023-04-24T12:56:34;101195.22;;;19.37;31.61
78909;BME280;68298;37.368;127.108;2023-04-24T12:59:06;101189.97;;;19.37;31.77
78909;BME280;68298;37.368;127.108;2023-04-24T13:01:37;101185.66;;;19.36;31.74
78909;BME280;68298;37.368;127.108;2023-04-24T13:04:07;101181.25;;;19.36;31.59
78909;BME280;68298;37.368;127.108;2023-04-24T13:06:38;101187.41;;;19.35;31.50
78909;BME280;68298;37.368;127.108;2023-04-24T13:09:09;101183.03;;;19.36;31.73
78909;BME280;68298;37.368;127.108;2023-04-24T13:11:40;101181.31;;;19.35;31.52